map of KFPK home
KFPK - Airport
Location
City:  Charlotte, Michigan, United States
Name:Fitch H Beach Airport
ICAO:KFPK
FAA LID:FPK

Details
Type:Airport (Airfield)
Use:Public/Civil
Latitude:4234'27"N (42.574083)
Longitude:8448'44"W (-84.812110)
Datum:WGS 1984
Elevation:891 ft (272 m)
Variation:6.29W (WMM2015 magnetic declination)
-0.04 annual change
Runways:2
Longest:3510 × 75 ft (1070 × 23 m), paved

Time
Time Zone:UTC-5 (DST-4)
Local Time:

Weather
METAR:KFPK 151335Z AUTO 28010G14KT 10SM OVC014 08/06 A2996 RMK AO2 T00780056

Related Locations
Nearby:
Farthest:YAUG: 11221 mi / 18058 km
Augusta [Augusta Airport], WA, AU

Find:

   beyond  
but within

Other Information
Maps:
NOTAMs:
Links:
Sources:

  
  • flag of United States
  • flag of Michigan
  

Sectional Chart

Flight Planning
at skyvector.com

Satellite Image

Google Maps Satellite view

 

Copyright © 2004-2018 Karl L. Swartz. All rights reserved.
The Great Circle Mapper name and logo are trademarks of the Great Circle Mapper.
All other trademarks mentioned herein belong to their respective owners.
Please see credits for attibutions and further copyright information.

  Follow gcmap on Facebook Follow gcmap on Twitter Follow gcmap on Google+ GCmap on LinkedIn

hCard Microformat

Geo Microformat